Hildebran, North Carolina
Current Conditions -  °F | °C
As of 6:53 PM on Wednesday 26 Nov 2014 (Local Time) from KHKY Reporting Station
Broken Clouds Broken Clouds  
Wind Chill: 44°   Ceiling: 3500
Heat Index: 46°   Visibility: 10mi
Dew Point: 37°   Wind: 5mph
Humidity: 71%   Direction: 80°E
Pressure: 30"   Gusts: NA
Location:  35.71°N, 81.42°W
Report Text: KHKY 262353Z AUTO 08004KT 10SM SCT029 BKN035 BKN042 08/03 A3000 RMK AO2 SLP151 T00780028 10106 20067 51011
Loading
Personal Weather Stations






























Interactive Weather Map New forecast layout! Learn more

10-Day Weather Forecast

Advertisements
Track Severe Weather on mobile